Home   Weather   Spain   Jaén   Past weeks
Flag for Spain

Past Weather in Jaén, Spain — Yesterday and Last 2 Weeks

Currently: 75 °F. Sunny. (Weather station: Granada / Aeropuerto, Spain). See more current weather

Past Weather in Jaén — Graph

°F

Jaén Temperature Yesterday

Maximum temperature yesterday: 100 °F (at 3:00 pm)
Minimum temperature yesterday: 68 °F (at 6:00 am)
Average temperature yesterday: 84 °F

High & Low Weather Summary for the Past Weeks

 TemperatureHumidityPressure
High106 °F (Jul 22, 4:30 pm)83% (Jul 27, 5:00 am)30.12 "Hg (Jul 27, 5:00 am)
Low59 °F (Jul 21, 7:00 am)8% (Jul 24, 3:30 pm)29.89 "Hg (Jul 24, 5:00 pm)
Average83 °F37%30.00 "Hg
* Reported Jul 15 9:00 am — Jul 30 9:30 am, Jaén. Weather by CustomWeather, © 2021

Note: Actual official high and low records may vary slightly from our data, if they occured in-between our weather recording intervals... More about our weather records

Jaén Weather History for the Previous 24 Hours

Scroll right to see more
 ConditionsComfort  
Time TempWeatherWind HumidityBarometerVisibility
9:30 am
Fri, Jul 30
72 °FSunny.No wind69%30.04 "Hg10 mi
9:00 am72 °FSunny.No wind69%30.04 "Hg10 mi
8:30 am70 °FSunny.No wind69%30.04 "Hg10 mi
8:00 am66 °FSunny.1 mph68%30.01 "Hg10 mi
7:30 am66 °FSunny.No wind68%30.01 "Hg10 mi
7:00 am66 °FClear.No wind68%30.01 "Hg10 mi
6:30 am66 °FClear.No wind68%30.01 "Hg10 mi
6:00 am68 °FClear.No wind73%30.01 "Hg10 mi
5:30 am70 °FClear.No wind64%30.01 "Hg10 mi
5:00 am70 °FClear.No wind69%30.01 "Hg10 mi
4:30 am72 °FClear.No wind65%30.01 "Hg10 mi
4:00 am72 °FClear.No wind69%30.01 "Hg10 mi
3:30 am75 °FClear.No wind65%30.01 "Hg10 mi
3:00 am75 °FClear.No wind65%30.01 "Hg10 mi
2:30 am75 °FPassing clouds.3 mph57%30.01 "HgN/A
2:00 am75 °FClear.1 mph57%30.01 "Hg10 mi
1:30 am77 °FClear.2 mph57%30.04 "Hg10 mi
1:00 am79 °FClear.6 mph54%30.01 "Hg10 mi
12:30 am79 °FClear.1 mph54%30.01 "Hg10 mi
12:00 am79 °FClear.1 mph58%30.01 "Hg10 mi
11:30 pm
Thu, Jul 29
82 °FClear.1 mph51%29.98 "Hg10 mi
11:00 pm82 °FClear.10 mph55%29.98 "Hg10 mi
10:30 pm86 °FClear.9 mph46%29.98 "Hg10 mi
10:00 pm88 °FClear.7 mph35%29.98 "Hg10 mi
9:30 pm90 °FClear.3 mph36%29.95 "Hg10 mi
9:00 pm93 °FSunny.5 mph30%29.95 "Hg10 mi
8:30 pm95 °FSunny.8 mph26%29.95 "Hg10 mi
8:00 pm97 °FSunny.9 mph25%29.95 "Hg10 mi
7:30 pm97 °FPassing clouds.10 mph22%29.95 "HgN/A
7:00 pm99 °FSunny.12 mph19%29.95 "Hg10 mi
6:30 pm99 °FPassing clouds.12 mph19%29.95 "HgN/A
6:00 pm100 °FPassing clouds.12 mph18%29.95 "HgN/A
5:30 pm99 °FPassing clouds.12 mph19%29.95 "HgN/A
5:00 pm99 °FPassing clouds.13 mph19%29.95 "HgN/A
4:30 pm100 °FPassing clouds.10 mph21%29.95 "HgN/A
4:00 pm99 °FPassing clouds.10 mph21%29.98 "HgN/A
3:30 pm100 °FSunny.12 mph18%29.98 "Hg10 mi
3:00 pm100 °FPassing clouds.13 mph18%29.98 "HgN/A
2:30 pm95 °FPassing clouds.6 mph25%29.98 "HgN/A
2:00 pm95 °FPassing clouds.5 mph25%30.01 "HgN/A
1:30 pm93 °FPassing clouds.7 mph24%30.01 "HgN/A
1:00 pm91 °FPassing clouds.7 mph34%29.98 "HgN/A
12:30 pm93 °FPassing clouds.5 mph30%30.01 "HgN/A
12:00 pm90 °FPassing clouds.10 mph31%30.01 "HgN/A
11:30 am86 °FSunny.2 mph35%30.01 "Hg10 mi
11:00 am84 °FSunny.No wind43%30.01 "Hg10 mi
10:30 am82 °FSunny.1 mph48%30.01 "Hg10 mi
10:00 am81 °FSunny.1 mph54%30.01 "Hg10 mi
Weather by CustomWeather, © 2021

See weather overview